sensor_id;sensor_type;location;lat;lon;timestamp;P1;durP1;ratioP1;P2;durP2;ratioP2
8580;SDS011;4328;48.622;9.230;2022-10-26T00:00:25;4.03;;;2.10;;
8580;SDS011;4328;48.622;9.230;2022-10-26T00:02:52;2.83;;;2.10;;
8580;SDS011;4328;48.622;9.230;2022-10-26T00:05:18;4.80;;;2.40;;
8580;SDS011;4328;48.622;9.230;2022-10-26T00:07:46;4.73;;;2.50;;
8580;SDS011;4328;48.622;9.230;2022-10-26T00:10:13;5.70;;;2.53;;
8580;SDS011;4328;48.622;9.230;2022-10-26T00:12:40;3.00;;;2.20;;
8580;SDS011;4328;48.622;9.230;2022-10-26T00:15:07;8.30;;;2.30;;
8580;SDS011;4328;48.622;9.230;2022-10-26T00:17:33;6.73;;;2.63;;
8580;SDS011;4328;48.622;9.230;2022-10-26T00:20:00;5.47;;;2.40;;
8580;SDS011;4328;48.622;9.230;2022-10-26T00:22:26;6.27;;;2.30;;
8580;SDS011;4328;48.622;9.230;2022-10-26T00:24:53;5.70;;;2.53;;
8580;SDS011;4328;48.622;9.230;2022-10-26T00:27:21;6.50;;;2.20;;
8580;SDS011;4328;48.622;9.230;2022-10-26T00:29:47;4.03;;;2.23;;
8580;SDS011;4328;48.622;9.230;2022-10-26T00:32:13;4.33;;;2.40;;
8580;SDS011;4328;48.622;9.230;2022-10-26T00:34:40;7.43;;;2.37;;
8580;SDS011;4328;48.622;9.230;2022-10-26T00:37:06;7.37;;;2.40;;
8580;SDS011;4328;48.622;9.230;2022-10-26T00:39:33;8.13;;;2.43;;
8580;SDS011;4328;48.622;9.230;2022-10-26T00:42:00;5.37;;;2.53;;
8580;SDS011;4328;48.622;9.230;2022-10-26T00:47:32;6.77;;;2.33;;
8580;SDS011;4328;48.622;9.230;2022-10-26T00:50:00;3.93;;;2.00;;
8580;SDS011;4328;48.622;9.230;2022-10-26T00:52:27;3.83;;;2.33;;
8580;SDS011;4328;48.622;9.230;2022-10-26T00:54:54;7.33;;;2.40;;
8580;SDS011;4328;48.622;9.230;2022-10-26T00:57:21;7.43;;;2.47;;
8580;SDS011;4328;48.622;9.230;2022-10-26T00:59:48;4.20;;;2.43;;
8580;SDS011;4328;48.622;9.230;2022-10-26T01:02:14;7.03;;;2.10;;
8580;SDS011;4328;48.622;9.230;2022-10-26T01:04:42;6.50;;;2.10;;
8580;SDS011;4328;48.622;9.230;2022-10-26T01:07:10;4.90;;;2.13;;
8580;SDS011;4328;48.622;9.230;2022-10-26T01:09:37;4.57;;;2.47;;
8580;SDS011;4328;48.622;9.230;2022-10-26T01:12:04;4.00;;;1.93;;
8580;SDS011;4328;48.622;9.230;2022-10-26T01:14:30;2.60;;;2.13;;
8580;SDS011;4328;48.622;9.230;2022-10-26T01:16:58;5.23;;;2.40;;
8580;SDS011;4328;48.622;9.230;2022-10-26T01:19:46;6.20;;;2.17;;
8580;SDS011;4328;48.622;9.230;2022-10-26T01:22:18;4.93;;;2.10;;
8580;SDS011;4328;48.622;9.230;2022-10-26T01:24:50;5.67;;;2.10;;
8580;SDS011;4328;48.622;9.230;2022-10-26T01:27:22;4.50;;;2.30;;
8580;SDS011;4328;48.622;9.230;2022-10-26T01:32:36;2.63;;;2.10;;
8580;SDS011;4328;48.622;9.230;2022-10-26T01:35:05;6.80;;;2.23;;
8580;SDS011;4328;48.622;9.230;2022-10-26T01:37:34;4.67;;;2.53;;
8580;SDS011;4328;48.622;9.230;2022-10-26T01:40:03;4.03;;;2.40;;
8580;SDS011;4328;48.622;9.230;2022-10-26T01:42:31;2.83;;;2.20;;
8580;SDS011;4328;48.622;9.230;2022-10-26T01:45:02;2.57;;;2.03;;
8580;SDS011;4328;48.622;9.230;2022-10-26T01:47:29;5.47;;;2.33;;
8580;SDS011;4328;48.622;9.230;2022-10-26T01:49:59;5.63;;;2.60;;
8580;SDS011;4328;48.622;9.230;2022-10-26T01:52:26;4.83;;;2.50;;
8580;SDS011;4328;48.622;9.230;2022-10-26T01:54:58;4.53;;;2.37;;
8580;SDS011;4328;48.622;9.230;2022-10-26T01:57:25;5.00;;;2.80;;
8580;SDS011;4328;48.622;9.230;2022-10-26T01:59:55;4.33;;;2.50;;
8580;SDS011;4328;48.622;9.230;2022-10-26T02:02:28;5.80;;;2.50;;
8580;SDS011;4328;48.622;9.230;2022-10-26T02:05:03;3.70;;;2.30;;
8580;SDS011;4328;48.622;9.230;2022-10-26T02:07:36;6.50;;;2.60;;
8580;SDS011;4328;48.622;9.230;2022-10-26T02:10:06;5.03;;;2.10;;
8580;SDS011;4328;48.622;9.230;2022-10-26T02:12:37;5.60;;;2.63;;
8580;SDS011;4328;48.622;9.230;2022-10-26T02:15:07;7.33;;;2.50;;
8580;SDS011;4328;48.622;9.230;2022-10-26T02:17:37;4.30;;;2.07;;
8580;SDS011;4328;48.622;9.230;2022-10-26T02:20:08;8.40;;;2.57;;
8580;SDS011;4328;48.622;9.230;2022-10-26T02:22:38;3.20;;;2.40;;
8580;SDS011;4328;48.622;9.230;2022-10-26T02:25:07;5.47;;;2.40;;
8580;SDS011;4328;48.622;9.230;2022-10-26T02:27:35;3.43;;;2.40;;
8580;SDS011;4328;48.622;9.230;2022-10-26T02:30:03;2.70;;;2.40;;
8580;SDS011;4328;48.622;9.230;2022-10-26T02:32:31;7.20;;;2.40;;
8580;SDS011;4328;48.622;9.230;2022-10-26T02:35:00;5.60;;;2.47;;
8580;SDS011;4328;48.622;9.230;2022-10-26T02:37:28;7.10;;;3.07;;
8580;SDS011;4328;48.622;9.230;2022-10-26T02:39:55;3.37;;;2.43;;
8580;SDS011;4328;48.622;9.230;2022-10-26T02:42:23;5.00;;;2.53;;
8580;SDS011;4328;48.622;9.230;2022-10-26T02:44:50;5.53;;;2.40;;
8580;SDS011;4328;48.622;9.230;2022-10-26T02:47:17;2.50;;;2.20;;
8580;SDS011;4328;48.622;9.230;2022-10-26T02:49:44;4.97;;;2.57;;
8580;SDS011;4328;48.622;9.230;2022-10-26T02:52:12;4.37;;;2.47;;
8580;SDS011;4328;48.622;9.230;2022-10-26T02:54:43;9.87;;;2.97;;
8580;SDS011;4328;48.622;9.230;2022-10-26T02:57:12;3.30;;;2.80;;
8580;SDS011;4328;48.622;9.230;2022-10-26T02:59:42;2.40;;;2.20;;
8580;SDS011;4328;48.622;9.230;2022-10-26T03:02:11;5.03;;;2.90;;
8580;SDS011;4328;48.622;9.230;2022-10-26T03:04:38;7.10;;;2.47;;
8580;SDS011;4328;48.622;9.230;2022-10-26T03:07:05;25.30;;;17.10;;
8580;SDS011;4328;48.622;9.230;2022-10-26T03:09:31;24.93;;;14.57;;
8580;SDS011;4328;48.622;9.230;2022-10-26T03:11:59;16.20;;;10.10;;
8580;SDS011;4328;48.622;9.230;2022-10-26T03:14:25;4.77;;;3.10;;
8580;SDS011;4328;48.622;9.230;2022-10-26T03:16:52;6.43;;;3.33;;
8580;SDS011;4328;48.622;9.230;2022-10-26T03:19:18;5.50;;;3.10;;
8580;SDS011;4328;48.622;9.230;2022-10-26T03:21:45;3.63;;;2.87;;
8580;SDS011;4328;48.622;9.230;2022-10-26T03:24:11;4.43;;;2.63;;
8580;SDS011;4328;48.622;9.230;2022-10-26T03:26:37;4.63;;;2.57;;
8580;SDS011;4328;48.622;9.230;2022-10-26T03:29:05;6.63;;;2.73;;
8580;SDS011;4328;48.622;9.230;2022-10-26T03:31:33;7.30;;;2.60;;
8580;SDS011;4328;48.622;9.230;2022-10-26T03:33:59;3.33;;;2.43;;
8580;SDS011;4328;48.622;9.230;2022-10-26T03:36:25;4.03;;;2.60;;
8580;SDS011;4328;48.622;9.230;2022-10-26T03:38:52;5.10;;;2.60;;
8580;SDS011;4328;48.622;9.230;2022-10-26T03:41:18;3.90;;;2.37;;
8580;SDS011;4328;48.622;9.230;2022-10-26T03:43:45;4.87;;;2.60;;
8580;SDS011;4328;48.622;9.230;2022-10-26T03:46:13;5.37;;;2.30;;
8580;SDS011;4328;48.622;9.230;2022-10-26T03:48:40;9.77;;;2.57;;
8580;SDS011;4328;48.622;9.230;2022-10-26T03:51:06;4.93;;;2.50;;
8580;SDS011;4328;48.622;9.230;2022-10-26T03:53:33;4.90;;;2.33;;
8580;SDS011;4328;48.622;9.230;2022-10-26T03:55:59;2.97;;;2.50;;
8580;SDS011;4328;48.622;9.230;2022-10-26T03:58:25;6.73;;;2.63;;
8580;SDS011;4328;48.622;9.230;2022-10-26T04:00:52;8.17;;;2.80;;
8580;SDS011;4328;48.622;9.230;2022-10-26T04:03:19;6.57;;;2.73;;
8580;SDS011;4328;48.622;9.230;2022-10-26T04:05:46;3.43;;;2.50;;
8580;SDS011;4328;48.622;9.230;2022-10-26T04:08:12;4.47;;;2.77;;
8580;SDS011;4328;48.622;9.230;2022-10-26T04:10:39;5.90;;;2.60;;
8580;SDS011;4328;48.622;9.230;2022-10-26T04:13:05;3.33;;;3.03;;
8580;SDS011;4328;48.622;9.230;2022-10-26T04:15:31;6.07;;;3.23;;
8580;SDS011;4328;48.622;9.230;2022-10-26T04:17:58;5.03;;;3.20;;
8580;SDS011;4328;48.622;9.230;2022-10-26T04:20:27;3.67;;;2.87;;
8580;SDS011;4328;48.622;9.230;2022-10-26T04:22:57;5.87;;;3.20;;
8580;SDS011;4328;48.622;9.230;2022-10-26T04:25:23;3.43;;;2.80;;
8580;SDS011;4328;48.622;9.230;2022-10-26T04:27:49;4.70;;;3.00;;
8580;SDS011;4328;48.622;9.230;2022-10-26T04:30:16;4.77;;;3.20;;
8580;SDS011;4328;48.622;9.230;2022-10-26T04:32:43;6.43;;;3.80;;
8580;SDS011;4328;48.622;9.230;2022-10-26T04:35:09;5.50;;;3.40;;
8580;SDS011;4328;48.622;9.230;2022-10-26T04:37:37;4.97;;;3.30;;
8580;SDS011;4328;48.622;9.230;2022-10-26T04:40:03;5.43;;;3.37;;
8580;SDS011;4328;48.622;9.230;2022-10-26T04:42:30;6.17;;;3.63;;
8580;SDS011;4328;48.622;9.230;2022-10-26T04:45:01;4.53;;;3.80;;
8580;SDS011;4328;48.622;9.230;2022-10-26T04:47:28;5.70;;;3.77;;
8580;SDS011;4328;48.622;9.230;2022-10-26T04:49:54;3.90;;;3.60;;
8580;SDS011;4328;48.622;9.230;2022-10-26T04:52:20;5.00;;;3.90;;
8580;SDS011;4328;48.622;9.230;2022-10-26T04:54:48;5.67;;;3.87;;
8580;SDS011;4328;48.622;9.230;2022-10-26T04:57:14;5.93;;;4.20;;
8580;SDS011;4328;48.622;9.230;2022-10-26T04:59:41;5.27;;;4.13;;
8580;SDS011;4328;48.622;9.230;2022-10-26T05:02:07;5.47;;;3.80;;
8580;SDS011;4328;48.622;9.230;2022-10-26T05:04:34;5.17;;;3.97;;
8580;SDS011;4328;48.622;9.230;2022-10-26T05:07:00;5.63;;;4.37;;
8580;SDS011;4328;48.622;9.230;2022-10-26T05:09:26;4.43;;;3.73;;
8580;SDS011;4328;48.622;9.230;2022-10-26T05:11:54;7.47;;;4.10;;
8580;SDS011;4328;48.622;9.230;2022-10-26T05:14:21;6.50;;;4.17;;
8580;SDS011;4328;48.622;9.230;2022-10-26T05:16:49;6.00;;;3.70;;
8580;SDS011;4328;48.622;9.230;2022-10-26T05:19:15;6.17;;;3.77;;
8580;SDS011;4328;48.622;9.230;2022-10-26T05:21:41;8.20;;;4.07;;
8580;SDS011;4328;48.622;9.230;2022-10-26T05:24:08;8.00;;;4.50;;
8580;SDS011;4328;48.622;9.230;2022-10-26T05:26:34;9.20;;;4.00;;
8580;SDS011;4328;48.622;9.230;2022-10-26T05:29:02;6.67;;;4.30;;
8580;SDS011;4328;48.622;9.230;2022-10-26T05:31:29;4.50;;;3.50;;
8580;SDS011;4328;48.622;9.230;2022-10-26T05:33:55;6.47;;;4.00;;
8580;SDS011;4328;48.622;9.230;2022-10-26T05:36:22;4.63;;;3.60;;
8580;SDS011;4328;48.622;9.230;2022-10-26T05:38:48;5.97;;;3.60;;
8580;SDS011;4328;48.622;9.230;2022-10-26T05:41:14;6.10;;;3.50;;
8580;SDS011;4328;48.622;9.230;2022-10-26T05:43:41;5.57;;;3.20;;
8580;SDS011;4328;48.622;9.230;2022-10-26T05:46:08;7.07;;;3.03;;
8580;SDS011;4328;48.622;9.230;2022-10-26T05:48:35;2.83;;;2.50;;
8580;SDS011;4328;48.622;9.230;2022-10-26T05:51:01;4.80;;;2.93;;
8580;SDS011;4328;48.622;9.230;2022-10-26T05:53:28;5.43;;;2.90;;
8580;SDS011;4328;48.622;9.230;2022-10-26T05:55:54;6.97;;;3.07;;
8580;SDS011;4328;48.622;9.230;2022-10-26T05:58:21;4.40;;;3.30;;
8580;SDS011;4328;48.622;9.230;2022-10-26T06:00:51;3.20;;;2.90;;
8580;SDS011;4328;48.622;9.230;2022-10-26T06:03:24;5.70;;;3.70;;
8580;SDS011;4328;48.622;9.230;2022-10-26T06:05:54;8.60;;;3.37;;
8580;SDS011;4328;48.622;9.230;2022-10-26T06:08:21;5.70;;;3.37;;
8580;SDS011;4328;48.622;9.230;2022-10-26T06:10:48;7.00;;;3.53;;
8580;SDS011;4328;48.622;9.230;2022-10-26T06:13:15;7.73;;;3.50;;
8580;SDS011;4328;48.622;9.230;2022-10-26T06:15:44;7.27;;;3.70;;
8580;SDS011;4328;48.622;9.230;2022-10-26T06:18:13;5.33;;;3.80;;
8580;SDS011;4328;48.622;9.230;2022-10-26T06:20:45;7.47;;;3.50;;
8580;SDS011;4328;48.622;9.230;2022-10-26T06:23:22;9.67;;;3.43;;
8580;SDS011;4328;48.622;9.230;2022-10-26T06:25:51;3.70;;;3.40;;
8580;SDS011;4328;48.622;9.230;2022-10-26T06:28:23;4.97;;;3.10;;
8580;SDS011;4328;48.622;9.230;2022-10-26T06:30:52;3.37;;;3.00;;
8580;SDS011;4328;48.622;9.230;2022-10-26T06:33:19;5.67;;;3.67;;
8580;SDS011;4328;48.622;9.230;2022-10-26T06:35:48;5.90;;;3.40;;
8580;SDS011;4328;48.622;9.230;2022-10-26T06:38:18;7.13;;;3.00;;
8580;SDS011;4328;48.622;9.230;2022-10-26T06:40:46;4.03;;;3.10;;
8580;SDS011;4328;48.622;9.230;2022-10-26T06:43:16;4.40;;;3.97;;
8580;SDS011;4328;48.622;9.230;2022-10-26T06:45:44;4.37;;;3.00;;
8580;SDS011;4328;48.622;9.230;2022-10-26T06:48:14;3.73;;;2.70;;
8580;SDS011;4328;48.622;9.230;2022-10-26T06:50:42;4.60;;;2.70;;
8580;SDS011;4328;48.622;9.230;2022-10-26T06:53:15;3.87;;;2.57;;
8580;SDS011;4328;48.622;9.230;2022-10-26T06:55:44;6.43;;;3.10;;
8580;SDS011;4328;48.622;9.230;2022-10-26T06:58:12;4.17;;;2.70;;
8580;SDS011;4328;48.622;9.230;2022-10-26T07:00:40;4.70;;;2.97;;
8580;SDS011;4328;48.622;9.230;2022-10-26T07:03:07;5.13;;;2.50;;
8580;SDS011;4328;48.622;9.230;2022-10-26T07:05:34;5.13;;;2.70;;
8580;SDS011;4328;48.622;9.230;2022-10-26T07:08:00;6.50;;;2.83;;
8580;SDS011;4328;48.622;9.230;2022-10-26T07:10:28;4.70;;;2.90;;
8580;SDS011;4328;48.622;9.230;2022-10-26T07:12:54;3.67;;;2.90;;
8580;SDS011;4328;48.622;9.230;2022-10-26T07:15:21;3.80;;;2.53;;
8580;SDS011;4328;48.622;9.230;2022-10-26T07:17:47;2.97;;;2.43;;
8580;SDS011;4328;48.622;9.230;2022-10-26T07:20:14;4.77;;;2.40;;
8580;SDS011;4328;48.622;9.230;2022-10-26T07:22:41;6.50;;;2.67;;
8580;SDS011;4328;48.622;9.230;2022-10-26T07:25:08;5.53;;;2.60;;
8580;SDS011;4328;48.622;9.230;2022-10-26T07:27:35;4.60;;;2.53;;
8580;SDS011;4328;48.622;9.230;2022-10-26T07:30:02;6.87;;;3.07;;
8580;SDS011;4328;48.622;9.230;2022-10-26T07:32:28;6.17;;;2.13;;
8580;SDS011;4328;48.622;9.230;2022-10-26T07:34:55;3.13;;;2.30;;
8580;SDS011;4328;48.622;9.230;2022-10-26T07:37:21;4.23;;;2.17;;
8580;SDS011;4328;48.622;9.230;2022-10-26T07:39:48;5.63;;;2.50;;
8580;SDS011;4328;48.622;9.230;2022-10-26T07:42:14;4.43;;;2.60;;
8580;SDS011;4328;48.622;9.230;2022-10-26T07:44:42;4.20;;;2.40;;
8580;SDS011;4328;48.622;9.230;2022-10-26T07:47:09;3.83;;;2.80;;
8580;SDS011;4328;48.622;9.230;2022-10-26T07:49:35;5.07;;;2.50;;
8580;SDS011;4328;48.622;9.230;2022-10-26T07:52:01;2.80;;;2.20;;
8580;SDS011;4328;48.622;9.230;2022-10-26T07:54:28;6.67;;;3.07;;
8580;SDS011;4328;48.622;9.230;2022-10-26T07:56:54;7.90;;;2.93;;
8580;SDS011;4328;48.622;9.230;2022-10-26T07:59:20;4.17;;;3.10;;
8580;SDS011;4328;48.622;9.230;2022-10-26T08:01:48;6.67;;;2.80;;
8580;SDS011;4328;48.622;9.230;2022-10-26T08:04:15;4.33;;;2.73;;
8580;SDS011;4328;48.622;9.230;2022-10-26T08:06:41;4.00;;;3.00;;
8580;SDS011;4328;48.622;9.230;2022-10-26T08:09:07;5.40;;;3.30;;
8580;SDS011;4328;48.622;9.230;2022-10-26T08:11:34;6.17;;;3.37;;
8580;SDS011;4328;48.622;9.230;2022-10-26T08:14:01;12.20;;;3.70;;
8580;SDS011;4328;48.622;9.230;2022-10-26T08:16:27;5.73;;;3.90;;
8580;SDS011;4328;48.622;9.230;2022-10-26T08:18:56;4.43;;;3.73;;
8580;SDS011;4328;48.622;9.230;2022-10-26T08:21:23;6.47;;;4.03;;
8580;SDS011;4328;48.622;9.230;2022-10-26T08:23:49;4.97;;;4.43;;
8580;SDS011;4328;48.622;9.230;2022-10-26T08:26:15;5.03;;;4.47;;
8580;SDS011;4328;48.622;9.230;2022-10-26T08:28:42;4.97;;;4.43;;
8580;SDS011;4328;48.622;9.230;2022-10-26T08:31:08;5.03;;;4.50;;
8580;SDS011;4328;48.622;9.230;2022-10-26T08:33:35;6.20;;;4.13;;
8580;SDS011;4328;48.622;9.230;2022-10-26T08:36:04;5.63;;;4.03;;
8580;SDS011;4328;48.622;9.230;2022-10-26T08:38:30;6.53;;;4.27;;
8580;SDS011;4328;48.622;9.230;2022-10-26T08:40:58;5.37;;;3.90;;
8580;SDS011;4328;48.622;9.230;2022-10-26T08:43:25;4.03;;;3.60;;
8580;SDS011;4328;48.622;9.230;2022-10-26T08:45:54;8.47;;;4.17;;
8580;SDS011;4328;48.622;9.230;2022-10-26T08:48:24;4.20;;;3.80;;
8580;SDS011;4328;48.622;9.230;2022-10-26T08:50:51;5.17;;;3.63;;
8580;SDS011;4328;48.622;9.230;2022-10-26T08:53:20;4.27;;;3.50;;
8580;SDS011;4328;48.622;9.230;2022-10-26T08:55:50;5.93;;;4.00;;
8580;SDS011;4328;48.622;9.230;2022-10-26T08:58:18;3.70;;;3.40;;
8580;SDS011;4328;48.622;9.230;2022-10-26T09:00:46;8.87;;;4.83;;
8580;SDS011;4328;48.622;9.230;2022-10-26T09:03:13;5.97;;;4.20;;
8580;SDS011;4328;48.622;9.230;2022-10-26T09:05:44;6.70;;;4.17;;
8580;SDS011;4328;48.622;9.230;2022-10-26T09:08:14;7.80;;;4.30;;
8580;SDS011;4328;48.622;9.230;2022-10-26T09:10:49;4.80;;;4.03;;
8580;SDS011;4328;48.622;9.230;2022-10-26T09:13:19;8.50;;;4.00;;
8580;SDS011;4328;48.622;9.230;2022-10-26T09:15:54;3.90;;;3.27;;
8580;SDS011;4328;48.622;9.230;2022-10-26T09:18:26;3.33;;;2.70;;
8580;SDS011;4328;48.622;9.230;2022-10-26T09:20:58;2.97;;;2.23;;
8580;SDS011;4328;48.622;9.230;2022-10-26T09:23:32;2.40;;;2.00;;
8580;SDS011;4328;48.622;9.230;2022-10-26T09:26:01;2.50;;;1.90;;
8580;SDS011;4328;48.622;9.230;2022-10-26T09:28:29;4.03;;;1.90;;
8580;SDS011;4328;48.622;9.230;2022-10-26T09:30:57;3.03;;;1.70;;
8580;SDS011;4328;48.622;9.230;2022-10-26T09:33:24;2.53;;;1.77;;
8580;SDS011;4328;48.622;9.230;2022-10-26T09:35:52;2.80;;;1.90;;
8580;SDS011;4328;48.622;9.230;2022-10-26T09:38:22;3.10;;;1.70;;
8580;SDS011;4328;48.622;9.230;2022-10-26T09:40:51;2.60;;;1.63;;
8580;SDS011;4328;48.622;9.230;2022-10-26T09:43:22;2.87;;;1.80;;
8580;SDS011;4328;48.622;9.230;2022-10-26T09:45:50;2.60;;;1.77;;
8580;SDS011;4328;48.622;9.230;2022-10-26T09:48:18;1.52;;;1.35;;
8580;SDS011;4328;48.622;9.230;2022-10-26T09:50:47;3.08;;;1.95;;
8580;SDS011;4328;48.622;9.230;2022-10-26T09:53:15;1.90;;;1.67;;
8580;SDS011;4328;48.622;9.230;2022-10-26T09:55:42;3.17;;;1.60;;
8580;SDS011;4328;48.622;9.230;2022-10-26T09:58:11;3.38;;;1.63;;
8580;SDS011;4328;48.622;9.230;2022-10-26T10:00:40;5.80;;;1.95;;
8580;SDS011;4328;48.622;9.230;2022-10-26T10:03:16;2.90;;;1.45;;
8580;SDS011;4328;48.622;9.230;2022-10-26T10:05:43;5.97;;;1.70;;
8580;SDS011;4328;48.622;9.230;2022-10-26T10:08:12;1.67;;;1.50;;
8580;SDS011;4328;48.622;9.230;2022-10-26T10:10:49;5.60;;;2.05;;
8580;SDS011;4328;48.622;9.230;2022-10-26T10:13:19;5.00;;;1.95;;
8580;SDS011;4328;48.622;9.230;2022-10-26T10:15:54;4.45;;;2.05;;
8580;SDS011;4328;48.622;9.230;2022-10-26T10:18:21;3.83;;;2.10;;
8580;SDS011;4328;48.622;9.230;2022-10-26T10:20:50;2.78;;;1.55;;
8580;SDS011;4328;48.622;9.230;2022-10-26T10:23:22;2.42;;;1.50;;
8580;SDS011;4328;48.622;9.230;2022-10-26T10:25:50;3.55;;;1.60;;
8580;SDS011;4328;48.622;9.230;2022-10-26T10:28:23;3.47;;;1.60;;
8580;SDS011;4328;48.622;9.230;2022-10-26T10:30:54;4.03;;;1.70;;
8580;SDS011;4328;48.622;9.230;2022-10-26T10:33:28;3.92;;;1.67;;
8580;SDS011;4328;48.622;9.230;2022-10-26T10:35:56;3.92;;;1.70;;
8580;SDS011;4328;48.622;9.230;2022-10-26T10:38:23;4.38;;;1.70;;
8580;SDS011;4328;48.622;9.230;2022-10-26T10:40:50;4.13;;;1.52;;
8580;SDS011;4328;48.622;9.230;2022-10-26T10:43:17;6.22;;;2.00;;
8580;SDS011;4328;48.622;9.230;2022-10-26T10:45:45;4.95;;;1.80;;
8580;SDS011;4328;48.622;9.230;2022-10-26T10:48:14;2.97;;;1.55;;
8580;SDS011;4328;48.622;9.230;2022-10-26T10:50:49;3.90;;;1.80;;
8580;SDS011;4328;48.622;9.230;2022-10-26T10:53:17;3.00;;;1.70;;
8580;SDS011;4328;48.622;9.230;2022-10-26T10:55:46;2.50;;;1.60;;
8580;SDS011;4328;48.622;9.230;2022-10-26T10:58:17;3.75;;;1.58;;
8580;SDS011;4328;48.622;9.230;2022-10-26T11:00:46;1.85;;;1.48;;
8580;SDS011;4328;48.622;9.230;2022-10-26T11:03:26;2.53;;;1.40;;
8580;SDS011;4328;48.622;9.230;2022-10-26T11:06:00;3.65;;;1.70;;
8580;SDS011;4328;48.622;9.230;2022-10-26T11:08:29;3.13;;;1.50;;
8580;SDS011;4328;48.622;9.230;2022-10-26T11:10:58;5.40;;;2.08;;
8580;SDS011;4328;48.622;9.230;2022-10-26T11:13:26;2.90;;;1.60;;
8580;SDS011;4328;48.622;9.230;2022-10-26T11:15:55;3.42;;;1.95;;
8580;SDS011;4328;48.622;9.230;2022-10-26T11:18:25;4.43;;;1.92;;
8580;SDS011;4328;48.622;9.230;2022-10-26T11:20:55;5.00;;;2.00;;
8580;SDS011;4328;48.622;9.230;2022-10-26T11:23:28;5.40;;;2.03;;
8580;SDS011;4328;48.622;9.230;2022-10-26T11:25:58;4.57;;;2.00;;
8580;SDS011;4328;48.622;9.230;2022-10-26T11:28:30;6.78;;;2.30;;
8580;SDS011;4328;48.622;9.230;2022-10-26T11:30:59;2.80;;;1.40;;
8580;SDS011;4328;48.622;9.230;2022-10-26T11:33:29;6.73;;;2.20;;
8580;SDS011;4328;48.622;9.230;2022-10-26T11:35:57;3.03;;;2.00;;
8580;SDS011;4328;48.622;9.230;2022-10-26T11:38:28;5.70;;;2.50;;
8580;SDS011;4328;48.622;9.230;2022-10-26T11:40:58;4.63;;;2.10;;
8580;SDS011;4328;48.622;9.230;2022-10-26T11:43:26;8.37;;;2.20;;
8580;SDS011;4328;48.622;9.230;2022-10-26T11:46:00;6.23;;;2.00;;
8580;SDS011;4328;48.622;9.230;2022-10-26T11:48:30;6.93;;;1.43;;
8580;SDS011;4328;48.622;9.230;2022-10-26T11:50:58;6.37;;;2.33;;
8580;SDS011;4328;48.622;9.230;2022-10-26T11:53:25;3.38;;;2.00;;
8580;SDS011;4328;48.622;9.230;2022-10-26T11:55:53;5.63;;;2.10;;
8580;SDS011;4328;48.622;9.230;2022-10-26T11:58:20;3.88;;;1.80;;
8580;SDS011;4328;48.622;9.230;2022-10-26T12:00:48;2.38;;;1.80;;
8580;SDS011;4328;48.622;9.230;2022-10-26T12:03:17;5.18;;;2.05;;
8580;SDS011;4328;48.622;9.230;2022-10-26T12:05:48;6.65;;;1.92;;
8580;SDS011;4328;48.622;9.230;2022-10-26T12:08:16;5.97;;;2.30;;
8580;SDS011;4328;48.622;9.230;2022-10-26T12:10:47;5.30;;;2.35;;
8580;SDS011;4328;48.622;9.230;2022-10-26T12:13:19;4.53;;;1.98;;
8580;SDS011;4328;48.622;9.230;2022-10-26T12:15:48;4.57;;;2.00;;
8580;SDS011;4328;48.622;9.230;2022-10-26T12:18:16;2.50;;;1.65;;
8580;SDS011;4328;48.622;9.230;2022-10-26T12:20:51;5.22;;;1.80;;
8580;SDS011;4328;48.622;9.230;2022-10-26T12:23:19;6.65;;;1.77;;
8580;SDS011;4328;48.622;9.230;2022-10-26T12:25:46;5.35;;;1.77;;
8580;SDS011;4328;48.622;9.230;2022-10-26T12:30:55;4.43;;;1.60;;
8580;SDS011;4328;48.622;9.230;2022-10-26T12:33:48;4.18;;;1.88;;
8580;SDS011;4328;48.622;9.230;2022-10-26T12:38:57;3.00;;;1.70;;
8580;SDS011;4328;48.622;9.230;2022-10-26T12:41:25;5.73;;;1.83;;
8580;SDS011;4328;48.622;9.230;2022-10-26T12:44:00;3.90;;;1.60;;
8580;SDS011;4328;48.622;9.230;2022-10-26T12:46:37;5.03;;;2.03;;
8580;SDS011;4328;48.622;9.230;2022-10-26T12:49:06;4.37;;;1.60;;
8580;SDS011;4328;48.622;9.230;2022-10-26T12:51:52;4.80;;;1.90;;
8580;SDS011;4328;48.622;9.230;2022-10-26T12:54:23;3.20;;;1.63;;
8580;SDS011;4328;48.622;9.230;2022-10-26T12:56:57;6.97;;;2.20;;
8580;SDS011;4328;48.622;9.230;2022-10-26T12:59:27;4.93;;;1.60;;
8580;SDS011;4328;48.622;9.230;2022-10-26T13:02:10;2.83;;;1.60;;
8580;SDS011;4328;48.622;9.230;2022-10-26T13:05:10;3.90;;;1.60;;
8580;SDS011;4328;48.622;9.230;2022-10-26T13:07:45;6.57;;;1.80;;
8580;SDS011;4328;48.622;9.230;2022-10-26T13:10:17;4.28;;;1.80;;
8580;SDS011;4328;48.622;9.230;2022-10-26T13:12:46;4.85;;;1.80;;
8580;SDS011;4328;48.622;9.230;2022-10-26T13:15:20;6.28;;;1.90;;
8580;SDS011;4328;48.622;9.230;2022-10-26T13:18:00;4.72;;;1.65;;
8580;SDS011;4328;48.622;9.230;2022-10-26T13:20:28;3.25;;;1.75;;
8580;SDS011;4328;48.622;9.230;2022-10-26T13:22:55;7.65;;;1.90;;
8580;SDS011;4328;48.622;9.230;2022-10-26T13:25:23;3.85;;;1.60;;
8580;SDS011;4328;48.622;9.230;2022-10-26T13:27:58;5.05;;;1.80;;
8580;SDS011;4328;48.622;9.230;2022-10-26T13:33:15;6.30;;;1.65;;
8580;SDS011;4328;48.622;9.230;2022-10-26T13:35:42;2.97;;;1.83;;
8580;SDS011;4328;48.622;9.230;2022-10-26T13:38:10;4.43;;;1.58;;
8580;SDS011;4328;48.622;9.230;2022-10-26T13:40:38;4.88;;;1.80;;
8580;SDS011;4328;48.622;9.230;2022-10-26T13:43:05;6.15;;;1.80;;
8580;SDS011;4328;48.622;9.230;2022-10-26T13:45:33;6.68;;;1.73;;
8580;SDS011;4328;48.622;9.230;2022-10-26T13:48:01;5.85;;;1.58;;
8580;SDS011;4328;48.622;9.230;2022-10-26T13:50:30;2.60;;;1.50;;
8580;SDS011;4328;48.622;9.230;2022-10-26T13:52:58;4.22;;;1.60;;
8580;SDS011;4328;48.622;9.230;2022-10-26T13:55:27;5.28;;;1.70;;
8580;SDS011;4328;48.622;9.230;2022-10-26T13:58:01;4.55;;;1.70;;
8580;SDS011;4328;48.622;9.230;2022-10-26T14:00:30;5.18;;;1.80;;
8580;SDS011;4328;48.622;9.230;2022-10-26T14:02:57;4.05;;;1.60;;
8580;SDS011;4328;48.622;9.230;2022-10-26T14:05:23;7.22;;;2.03;;
8580;SDS011;4328;48.622;9.230;2022-10-26T14:07:50;8.00;;;1.85;;
8580;SDS011;4328;48.622;9.230;2022-10-26T14:10:24;6.25;;;1.73;;
8580;SDS011;4328;48.622;9.230;2022-10-26T14:12:52;3.20;;;1.50;;
8580;SDS011;4328;48.622;9.230;2022-10-26T14:15:21;3.80;;;1.60;;
8580;SDS011;4328;48.622;9.230;2022-10-26T14:17:49;4.95;;;1.50;;
8580;SDS011;4328;48.622;9.230;2022-10-26T14:20:15;5.40;;;1.70;;
8580;SDS011;4328;48.622;9.230;2022-10-26T14:22:43;4.90;;;1.60;;
8580;SDS011;4328;48.622;9.230;2022-10-26T14:25:16;4.82;;;1.77;;
8580;SDS011;4328;48.622;9.230;2022-10-26T14:27:42;4.50;;;1.65;;
8580;SDS011;4328;48.622;9.230;2022-10-26T14:30:19;5.10;;;1.98;;
8580;SDS011;4328;48.622;9.230;2022-10-26T14:32:47;7.07;;;1.77;;
8580;SDS011;4328;48.622;9.230;2022-10-26T14:35:13;5.75;;;1.80;;
8580;SDS011;4328;48.622;9.230;2022-10-26T14:37:42;6.15;;;1.77;;
8580;SDS011;4328;48.622;9.230;2022-10-26T14:40:12;4.00;;;1.50;;
8580;SDS011;4328;48.622;9.230;2022-10-26T14:42:39;6.78;;;1.67;;
8580;SDS011;4328;48.622;9.230;2022-10-26T14:45:18;4.35;;;1.55;;
8580;SDS011;4328;48.622;9.230;2022-10-26T14:47:48;6.68;;;2.10;;
8580;SDS011;4328;48.622;9.230;2022-10-26T14:50:18;3.72;;;1.55;;
8580;SDS011;4328;48.622;9.230;2022-10-26T14:52:48;5.10;;;1.50;;
8580;SDS011;4328;48.622;9.230;2022-10-26T14:55:15;4.13;;;2.08;;
8580;SDS011;4328;48.622;9.230;2022-10-26T14:57:42;4.88;;;1.60;;
8580;SDS011;4328;48.622;9.230;2022-10-26T15:00:12;9.30;;;1.95;;
8580;SDS011;4328;48.622;9.230;2022-10-26T15:02:39;6.70;;;1.83;;
8580;SDS011;4328;48.622;9.230;2022-10-26T15:05:17;6.97;;;2.00;;
8580;SDS011;4328;48.622;9.230;2022-10-26T15:07:44;5.38;;;1.77;;
8580;SDS011;4328;48.622;9.230;2022-10-26T15:12:55;7.50;;;2.10;;
8580;SDS011;4328;48.622;9.230;2022-10-26T15:15:22;6.38;;;1.92;;
8580;SDS011;4328;48.622;9.230;2022-10-26T15:17:49;6.10;;;1.77;;
8580;SDS011;4328;48.622;9.230;2022-10-26T15:20:18;3.43;;;1.93;;
8580;SDS011;4328;48.622;9.230;2022-10-26T15:22:48;12.13;;;2.07;;
8580;SDS011;4328;48.622;9.230;2022-10-26T15:25:16;6.17;;;2.00;;
8580;SDS011;4328;48.622;9.230;2022-10-26T15:27:44;11.03;;;2.27;;
8580;SDS011;4328;48.622;9.230;2022-10-26T15:30:15;8.90;;;2.10;;
8580;SDS011;4328;48.622;9.230;2022-10-26T15:32:42;9.67;;;2.20;;
8580;SDS011;4328;48.622;9.230;2022-10-26T15:35:22;6.77;;;2.70;;
8580;SDS011;4328;48.622;9.230;2022-10-26T15:37:49;7.87;;;2.00;;
8580;SDS011;4328;48.622;9.230;2022-10-26T15:40:16;9.70;;;2.13;;